Time;durP1;ratioP1;P1;durP2;ratioP2;P2;SDS_P1;SDS_P2;PMS_P1;PMS_P2;Temp;Humidity;BMP_temperature;BMP_pressure;BME280_temperature;BME280_humidity;BME280_pressure;Samples;Min_cycle;Max_cycle;Signal;HPM_P1;HPM_P2
2021/12/10 00:01:49;;;;;;;6.40;3.50;;;;;;;1.87;82.43;98476.67;101655;1316;61097;-22
2021/12/10 00:04:19;;;;;;;7.50;4.10;;;;;;;1.68;82.67;98480.06;101790;1320;61346;-22
2021/12/10 00:06:51;;;;;;;12.30;5.90;;;;;;;1.40;83.61;98477.98;101958;1316;74566;-21
2021/12/10 00:09:24;;;;;;;11.90;4.40;;;;;;;1.51;84.05;98485.58;102189;1317;76101;-21
2021/12/10 00:11:58;;;;;;;5.60;3.20;;;;;;;1.87;82.71;98488.77;101909;1317;74468;-22
2021/12/10 00:14:27;;;;;;;15.10;8.50;;;;;;;1.84;82.42;98486.41;102113;1316;62040;-21
2021/12/10 00:16:55;;;;;;;10.20;4.80;;;;;;;1.58;83.16;98487.46;102247;1316;61195;-22
2021/12/10 00:21:49;;;;;;;8.30;3.80;;;;;;;1.77;83.01;98482.83;102238;1319;75030;-22
2021/12/10 00:24:16;;;;;;;6.50;4.60;;;;;;;1.82;82.70;98484.79;102253;1313;74637;-22
2021/12/10 00:26:44;;;;;;;7.30;4.00;;;;;;;1.67;83.03;98484.77;102167;1313;61380;-22
2021/12/10 00:29:12;;;;;;;7.50;4.00;;;;;;;1.39;84.09;98481.42;101681;1316;62874;-22
2021/12/10 00:31:46;;;;;;;13.10;5.80;;;;;;;1.63;83.99;98474.86;102255;1313;75756;-22
2021/12/10 00:34:39;;;;;;;6.50;3.50;;;;;;;1.81;83.16;98477.14;101746;1316;76046;-22
2021/12/10 00:37:10;;;;;;;8.80;4.30;;;;;;;1.66;83.23;98474.20;102156;1316;74444;-22
2021/12/10 00:39:39;;;;;;;6.90;3.00;;;;;;;1.44;84.32;98470.73;101972;1319;61929;-22
2021/12/10 00:42:08;;;;;;;15.00;6.60;;;;;;;1.76;83.60;98465.25;101975;1316;61196;-25
2021/12/10 00:44:35;;;;;;;9.90;4.10;;;;;;;1.92;82.80;98466.30;101810;1316;75697;-26
2021/12/10 00:47:03;;;;;;;4.00;2.60;;;;;;;1.75;83.00;98468.27;102079;1317;75832;-24
2021/12/10 00:49:30;;;;;;;13.50;6.40;;;;;;;1.51;83.82;98458.89;101924;1319;71496;-21
2021/12/10 00:51:57;;;;;;;6.10;3.40;;;;;;;1.66;83.85;98453.85;102087;1317;61244;-21
2021/12/10 00:54:24;;;;;;;5.20;3.30;;;;;;;1.88;83.11;98456.56;101997;1317;61197;-22
2021/12/10 00:56:51;;;;;;;8.20;3.90;;;;;;;1.78;82.92;98447.69;102179;1320;73559;-23
2021/12/10 00:59:20;;;;;;;7.20;4.10;;;;;;;1.56;83.69;98454.55;102223;1320;75221;-25
2021/12/10 01:01:48;;;;;;;14.50;5.20;;;;;;;1.68;84.00;98444.16;102242;1313;73417;-23
2021/12/10 01:04:32;;;;;;;10.10;4.40;;;;;;;2.05;82.59;98438.35;101828;1317;61135;-23
2021/12/10 01:07:01;;;;;;;5.10;2.80;;;;;;;2.05;82.26;98429.95;101903;1313;61101;-21
2021/12/10 01:09:31;;;;;;;2.90;1.90;;;;;;;1.78;82.75;98425.98;101993;1317;75471;-20
2021/12/10 01:12:10;;;;;;;12.00;4.70;;;;;;;1.58;83.59;98440.21;101856;1317;76609;-21
2021/12/10 01:14:59;;;;;;;7.70;3.30;;;;;;;1.97;82.86;98441.72;101890;1313;72817;-21
2021/12/10 01:26:06;;;;;;;10.10;3.30;;;;;;;1.85;83.14;98425.90;102315;1313;76072;-23
2021/12/10 01:28:35;;;;;;;;;;;;;;;1.91;82.70;98421.98;102196;1313;74154;-20
2021/12/10 01:31:02;;;;;;;6.70;3.50;;;;;;;1.72;83.11;98409.53;101831;1313;61189;-22
2021/12/10 01:33:30;;;;;;;9.60;3.30;;;;;;;1.53;83.83;98422.54;102008;1313;61074;-22
2021/12/10 01:35:59;;;;;;;4.60;2.70;;;;;;;1.84;83.22;98421.88;101904;1317;75617;-23
2021/12/10 01:38:26;;;;;;;5.80;4.00;;;;;;;2.03;82.27;98421.18;102212;1313;75975;-23
2021/12/10 01:40:56;;;;;;;4.10;2.80;;;;;;;1.83;82.45;98416.63;102063;1317;73282;-20
2021/12/10 01:43:23;;;;;;;4.40;2.80;;;;;;;1.54;83.23;98420.27;101705;1319;61294;-21
2021/12/10 01:45:53;;;;;;;6.00;2.70;;;;;;;1.59;83.62;98421.34;101967;1314;61692;-23
2021/12/10 01:48:23;;;;;;;3.70;2.70;;;;;;;1.89;82.46;98428.41;101718;1319;75925;-23
2021/12/10 01:50:51;;;;;;;3.10;1.70;;;;;;;1.83;82.26;98425.73;101763;1317;75077;-23
2021/12/10 01:53:20;;;;;;;4.40;3.10;;;;;;;1.60;82.84;98410.53;102024;1317;74441;-22
2021/12/10 01:55:48;;;;;;;4.80;3.50;;;;;;;1.43;83.80;98416.42;101690;1317;61978;-22
2021/12/10 01:58:17;;;;;;;6.70;3.00;;;;;;;1.81;82.67;98431.76;101618;1316;61301;-21
2021/12/10 02:00:47;;;;;;;6.80;4.40;;;;;;;1.87;81.90;98424.41;101823;1314;75605;-22
2021/12/10 02:03:14;;;;;;;5.00;3.50;;;;;;;1.69;82.34;98415.52;101792;1317;74466;-23
2021/12/10 02:05:42;;;;;;;5.10;3.30;;;;;;;1.45;82.97;98414.42;102109;1313;74370;-23
2021/12/10 02:08:09;;;;;;;7.20;3.50;;;;;;;1.61;83.04;98408.95;102015;1313;61072;-23
2021/12/10 02:10:37;;;;;;;6.70;4.20;;;;;;;1.86;82.11;98422.27;102010;1317;61117;-23
2021/12/10 02:13:04;;;;;;;7.40;3.90;;;;;;;1.79;82.22;98426.98;101935;1314;75784;-22
2021/12/10 02:15:31;;;;;;;6.40;3.70;;;;;;;1.49;83.00;98412.80;102096;1316;76010;-20
2021/12/10 02:17:59;;;;;;;5.20;3.30;;;;;;;1.43;83.74;98422.02;102039;1313;73497;-21
2021/12/10 02:20:35;;;;;;;5.30;3.80;;;;;;;1.71;82.41;98408.76;101669;1317;61902;-21
2021/12/10 02:23:05;;;;;;;5.40;2.60;;;;;;;1.69;82.20;98415.04;101807;1314;62029;-20
2021/12/10 02:25:32;;;;;;;5.70;3.30;;;;;;;1.47;82.88;98410.39;101989;1316;73440;-21
2021/12/10 02:27:59;;;;;;;5.50;3.10;;;;;;;1.43;83.32;98403.91;102036;1317;76241;-20
2021/12/10 02:30:27;;;;;;;5.60;3.20;;;;;;;1.81;82.13;98398.92;102275;1312;73454;-21
2021/12/10 02:32:54;;;;;;;4.20;2.90;;;;;;;1.85;81.54;98399.77;102024;1317;61149;-21
2021/12/10 02:35:21;;;;;;;4.30;2.70;;;;;;;1.68;82.13;98391.63;102096;1313;61173;-21
2021/12/10 02:37:48;;;;;;;5.80;4.00;;;;;;;1.40;82.89;98394.82;102097;1314;75731;-21
2021/12/10 02:40:18;;;;;;;3.20;2.10;;;;;;;1.48;83.43;98391.34;102212;1317;76074;-21
2021/12/10 02:42:46;;;;;;;9.40;4.90;;;;;;;1.85;82.18;98391.88;101783;1319;73578;-21
2021/12/10 02:45:15;;;;;;;8.80;3.40;;;;;;;1.80;81.91;98385.79;101674;1314;61309;-21
2021/12/10 02:47:44;;;;;;;5.70;3.50;;;;;;;1.56;82.55;98381.98;101756;1321;61076;-20
2021/12/10 02:50:11;;;;;;;5.00;2.40;;;;;;;1.42;83.21;98374.56;101698;1316;76381;-21
2021/12/10 02:52:38;;;;;;;5.00;3.20;;;;;;;1.74;82.60;98375.35;101972;1314;75460;-21
2021/12/10 02:55:09;;;;;;;3.80;2.50;;;;;;;1.89;81.84;98376.23;102276;1313;74317;-21
2021/12/10 02:57:38;;;;;;;8.50;4.00;;;;;;;1.76;81.92;98379.52;101972;1314;61200;-21
2021/12/10 03:00:08;;;;;;;7.80;4.40;;;;;;;1.49;82.89;98371.60;101877;1317;61217;-21
2021/12/10 03:02:35;;;;;;;7.90;3.80;;;;;;;1.54;83.22;98366.02;101969;1317;74801;-21
2021/12/10 03:05:05;;;;;;;4.70;2.40;;;;;;;1.88;82.25;98367.57;102170;1313;76268;-21
2021/12/10 03:07:33;;;;;;;3.80;2.40;;;;;;;1.85;81.81;98372.55;101849;1317;73498;-20
2021/12/10 03:10:00;;;;;;;11.60;4.30;;;;;;;1.66;82.34;98372.57;101853;1314;61263;-21
2021/12/10 03:12:27;;;;;;;5.70;3.40;;;;;;;1.51;83.00;98368.05;102303;1317;61188;-21
2021/12/10 03:14:55;;;;;;;5.00;3.00;;;;;;;1.92;82.12;98364.77;102253;1314;75574;-21
2021/12/10 03:17:25;;;;;;;4.20;2.70;;;;;;;2.05;81.28;98357.52;101821;1313;74394;-21
2021/12/10 03:19:52;;;;;;;6.10;3.80;;;;;;;1.89;81.62;98354.14;101761;1317;74445;-22
2021/12/10 03:22:19;;;;;;;3.20;1.90;;;;;;;1.67;82.11;98349.20;102182;1313;61201;-23
2021/12/10 03:24:46;;;;;;;5.60;2.60;;;;;;;1.66;82.81;98352.67;102134;1313;61233;-23
2021/12/10 03:27:14;;;;;;;5.00;3.10;;;;;;;2.13;81.50;98349.52;102172;1313;75692;-23
2021/12/10 03:29:44;;;;;;;6.00;3.80;;;;;;;2.25;80.80;98341.50;101762;1316;75140;-21
2021/12/10 03:32:15;;;;;;;4.70;2.70;;;;;;;2.03;81.14;98343.62;102057;1316;74433;-21
2021/12/10 03:34:42;;;;;;;6.10;4.00;;;;;;;1.74;81.99;98335.13;101760;1317;61138;-21
2021/12/10 03:37:09;;;;;;;3.50;2.30;;;;;;;1.69;82.63;98332.52;102274;1316;62166;-21
2021/12/10 03:39:36;;;;;;;6.50;3.70;;;;;;;1.98;81.74;98334.15;102327;1313;75584;-21
2021/12/10 03:42:06;;;;;;;6.80;4.00;;;;;;;1.97;81.41;98333.31;102290;1313;75904;-23
2021/12/10 03:44:33;;;;;;;4.50;2.90;;;;;;;1.79;81.97;98333.48;101718;1317;74467;-22
2021/12/10 03:47:00;;;;;;;5.70;3.40;;;;;;;1.55;83.01;98334.80;102288;1317;61161;-22
2021/12/10 03:49:28;;;;;;;6.60;3.80;;;;;;;1.78;82.69;98334.60;102285;1314;61947;-23
2021/12/10 03:51:55;;;;;;;5.00;3.10;;;;;;;2.01;81.79;98334.81;102300;1317;75456;-22
2021/12/10 03:54:21;;;;;;;4.20;3.20;;;;;;;1.96;81.70;98339.73;102275;1313;76250;-22
2021/12/10 03:56:49;;;;;;;8.50;5.00;;;;;;;1.76;82.15;98330.41;102196;1313;74497;-22
2021/12/10 03:59:17;;;;;;;6.50;3.30;;;;;;;1.71;82.90;98321.27;102117;1313;62907;-22
2021/12/10 04:01:45;;;;;;;4.80;2.80;;;;;;;2.04;82.10;98327.98;101665;1319;61213;-22
2021/12/10 04:04:19;;;;;;;6.30;3.20;;;;;;;2.03;81.81;98327.71;101750;1316;75838;-22
2021/12/10 04:06:46;;;;;;;6.90;4.30;;;;;;;1.83;82.18;98328.14;101737;1317;75028;-22
2021/12/10 04:09:13;;;;;;;8.70;5.40;;;;;;;1.73;83.09;98324.41;102141;1313;73610;-22
2021/12/10 04:11:40;;;;;;;5.50;3.40;;;;;;;2.09;82.16;98319.79;102045;1316;61150;-23
2021/12/10 04:14:07;;;;;;;8.70;4.70;;;;;;;2.17;81.71;98324.15;102167;1313;61268;-22
2021/12/10 04:16:39;;;;;;;9.80;5.00;;;;;;;2.00;82.08;98315.56;102109;1314;75526;-23
2021/12/10 04:19:08;;;;;;;5.40;3.60;;;;;;;1.85;82.77;98317.95;102034;1316;75273;-22
2021/12/10 04:21:40;;;;;;;5.90;3.90;;;;;;;2.11;82.60;98310.95;101704;1316;73665;-22
2021/12/10 04:24:27;;;;;;;3.50;2.20;;;;;;;2.36;81.42;98313.98;102000;1313;61210;-22
2021/12/10 04:26:54;;;;;;;8.00;3.70;;;;;;;2.23;81.69;98317.28;101757;1316;61209;-23
2021/12/10 04:29:21;;;;;;;9.90;5.10;;;;;;;1.97;82.42;98319.46;102062;1313;75943;-22
2021/12/10 04:31:50;;;;;;;6.60;4.10;;;;;;;1.95;83.15;98320.25;101925;1313;75090;-22
2021/12/10 04:34:17;;;;;;;10.70;4.20;;;;;;;2.35;81.94;98323.75;101704;1316;73322;-22
2021/12/10 04:36:45;;;;;;;7.40;3.00;;;;;;;2.34;81.60;98321.09;102081;1313;62201;-22
2021/12/10 04:39:12;;;;;;;7.80;4.00;;;;;;;2.20;81.89;98325.87;101947;1317;61183;-22
2021/12/10 04:41:39;;;;;;;7.20;3.80;;;;;;;1.96;82.53;98324.83;101905;1313;75617;-22
2021/12/10 04:44:07;;;;;;;11.20;5.00;;;;;;;2.16;82.51;98332.58;102070;1313;76023;-22
2021/12/10 04:46:34;;;;;;;11.30;4.70;;;;;;;2.36;81.68;98332.48;102131;1313;74337;-23
2021/12/10 04:49:12;;;;;;;7.20;4.00;;;;;;;2.30;81.80;98332.11;102173;1316;61163;-22
2021/12/10 04:51:41;;;;;;;7.40;4.50;;;;;;;2.07;82.37;98327.79;102164;1313;61959;-22
2021/12/10 04:54:08;;;;;;;5.60;3.70;;;;;;;2.06;83.12;98322.70;102143;1320;74492;-23
2021/12/10 04:56:36;;;;;;;8.70;5.60;;;;;;;2.42;81.72;98315.16;102134;1314;75359;-22
2021/12/10 04:59:05;;;;;;;8.20;4.60;;;;;;;2.42;81.53;98306.06;102198;1316;74426;-22
2021/12/10 05:01:32;;;;;;;7.40;4.40;;;;;;;2.26;81.90;98302.05;101976;1316;61107;-22
2021/12/10 05:03:59;;;;;;;5.10;3.30;;;;;;;2.07;82.83;98304.16;102301;1313;61678;-22
2021/12/10 05:06:26;;;;;;;6.80;4.00;;;;;;;2.42;82.10;98303.31;102173;1313;75443;-25
2021/12/10 05:08:53;;;;;;;10.90;6.30;;;;;;;2.55;81.29;98299.49;102238;1313;76548;-22
2021/12/10 05:11:20;;;;;;;11.10;6.90;;;;;;;2.39;81.80;98304.38;102301;1313;74203;-23
2021/12/10 05:13:47;;;;;;;7.50;4.20;;;;;;;2.19;82.19;98300.58;102305;1320;61097;-22
2021/12/10 05:16:14;;;;;;;9.00;5.80;;;;;;;2.24;82.61;98303.88;102307;1313;61198;-22
2021/12/10 05:18:44;;;;;;;10.40;5.60;;;;;;;2.60;81.60;98312.21;102328;1313;75900;-22
2021/12/10 05:21:12;;;;;;;9.90;5.70;;;;;;;2.60;81.09;98307.92;102097;1319;76054;-23
2021/12/10 05:23:39;;;;;;;10.70;6.20;;;;;;;2.37;81.64;98312.52;101902;1317;73529;-23
2021/12/10 05:26:07;;;;;;;11.40;5.70;;;;;;;2.15;82.48;98318.10;102271;1313;61084;-23
2021/12/10 05:28:34;;;;;;;10.50;6.40;;;;;;;2.34;82.37;98314.22;102167;1313;230518;-22
2021/12/10 05:31:02;;;;;;;6.30;4.10;;;;;;;2.56;81.43;98311.89;102100;1314;75513;-22
2021/12/10 05:33:29;;;;;;;14.90;8.50;;;;;;;2.49;81.62;98314.23;102279;1316;76041;-23
2021/12/10 05:35:58;;;;;;;12.80;5.20;;;;;;;2.24;82.26;98311.25;102279;1317;74279;-23
2021/12/10 05:38:25;;;;;;;21.20;9.40;;;;;;;2.21;82.83;98313.83;102281;1313;63004;-23
2021/12/10 05:40:53;;;;;;;11.90;5.90;;;;;;;2.58;81.68;98309.73;102321;1317;61125;-23
2021/12/10 05:43:20;;;;;;;11.50;6.90;;;;;;;2.62;81.28;98309.51;101863;1319;74308;-23
2021/12/10 05:45:47;;;;;;;13.00;4.60;;;;;;;2.44;81.64;98311.23;102093;1320;75117;-23
2021/12/10 05:48:14;;;;;;;12.10;6.20;;;;;;;2.20;82.44;98309.39;101928;1316;74989;-23
2021/12/10 05:50:41;;;;;;;10.20;5.50;;;;;;;2.43;82.47;98310.63;102309;1316;61244;-23
2021/12/10 05:53:08;;;;;;;6.20;3.90;;;;;;;2.71;81.22;98309.79;102340;1314;61178;-23
2021/12/10 05:55:36;;;;;;;11.30;5.70;;;;;;;2.63;81.28;98296.44;102109;1313;75611;-23
2021/12/10 05:58:04;;;;;;;8.40;4.50;;;;;;;2.39;81.90;98300.06;101756;1313;76222;-23
2021/12/10 06:00:41;;;;;;;10.50;5.10;;;;;;;2.29;82.88;98303.91;101729;1319;74369;-23
2021/12/10 06:03:08;;;;;;;12.80;7.00;;;;;;;2.72;81.74;98308.02;101840;1317;62083;-23
2021/12/10 06:05:35;;;;;;;11.40;4.70;;;;;;;2.85;80.96;98304.19;102274;1313;61096;-23
2021/12/10 06:08:04;;;;;;;8.20;4.20;;;;;;;2.68;81.27;98295.60;102330;1314;75451;-23
2021/12/10 06:10:32;;;;;;;9.60;5.90;;;;;;;2.47;82.12;98287.41;101952;1316;76360;-23
2021/12/10 06:12:58;;;;;;;9.60;5.00;;;;;;;2.64;82.27;98286.21;102152;1314;74182;-23
2021/12/10 06:15:27;;;;;;;7.50;4.90;;;;;;;2.90;81.36;98278.33;102057;1314;61215;-23
2021/12/10 06:17:55;;;;;;;12.70;8.40;;;;;;;2.80;81.15;98279.41;101833;1317;61285;-23
2021/12/10 06:20:25;;;;;;;11.80;5.60;;;;;;;2.53;82.34;98279.53;102152;1313;75608;-23
2021/12/10 06:22:52;;;;;;;8.20;5.00;;;;;;;2.65;82.68;98273.98;101849;1317;75989;-23
2021/12/10 06:25:19;;;;;;;6.10;4.00;;;;;;;2.92;81.50;98281.24;102271;1313;74695;-23
2021/12/10 06:27:47;;;;;;;13.40;7.60;;;;;;;2.87;81.41;98278.32;102044;1316;61292;-23
2021/12/10 06:30:17;;;;;;;9.30;5.90;;;;;;;2.66;82.18;98268.98;102260;1317;61531;-23
2021/12/10 06:32:45;;;;;;;18.20;10.60;;;;;;;2.68;82.80;98269.72;102163;1314;75522;-24
2021/12/10 06:35:13;;;;;;;11.30;5.80;;;;;;;3.03;81.72;98268.07;101891;1316;75253;-23
2021/12/10 06:37:40;;;;;;;13.00;6.10;;;;;;;2.95;81.79;98273.90;101872;1317;74448;-23
2021/12/10 06:40:09;;;;;;;12.70;6.70;;;;;;;2.72;82.61;98277.50;102256;1317;61185;-23
2021/12/10 06:42:36;;;;;;;11.20;5.50;;;;;;;2.77;83.04;98275.69;102029;1314;61980;-23
2021/12/10 06:45:05;;;;;;;7.70;4.60;;;;;;;3.03;82.17;98269.80;102165;1314;75768;-23
2021/12/10 06:47:33;;;;;;;9.20;5.70;;;;;;;3.06;81.86;98269.80;101764;1313;74628;-23
2021/12/10 06:50:01;;;;;;;12.60;7.10;;;;;;;2.83;82.35;98262.31;101688;1319;73310;-23
2021/12/10 06:52:28;;;;;;;10.60;5.60;;;;;;;2.82;83.07;98264.05;101715;1316;61450;-23
2021/12/10 06:54:55;;;;;;;11.50;5.50;;;;;;;3.19;81.80;98262.59;102073;1314;61493;-24
2021/12/10 06:57:22;;;;;;;9.10;5.00;;;;;;;3.15;81.56;98262.16;102138;1313;75501;-23
2021/12/10 06:59:50;;;;;;;17.50;9.10;;;;;;;2.94;82.30;98262.45;102149;1313;75844;-24
2021/12/10 07:02:17;;;;;;;7.20;4.40;;;;;;;2.80;82.97;98263.81;101759;1316;73280;-25
2021/12/10 07:04:44;;;;;;;15.60;7.60;;;;;;;3.06;82.23;98261.20;102117;1313;62031;-26
2021/12/10 07:07:14;;;;;;;12.60;8.20;;;;;;;3.13;81.98;98245.33;102010;1313;61120;-25
2021/12/10 07:09:41;;;;;;;10.30;5.80;;;;;;;2.97;82.44;98248.43;102005;1313;75578;-23
2021/12/10 07:12:09;;;;;;;7.20;4.20;;;;;;;2.84;83.45;98242.33;101737;1316;75163;-23
2021/12/10 07:14:36;;;;;;;11.80;6.10;;;;;;;3.11;82.75;98243.55;102179;1313;74287;-23
2021/12/10 07:17:03;;;;;;;11.20;5.00;;;;;;;3.16;82.49;98235.54;102195;1316;61214;-23
2021/12/10 07:19:31;;;;;;;13.20;7.50;;;;;;;3.04;82.57;98240.93;102132;1313;61217;-24
2021/12/10 07:21:59;;;;;;;7.70;4.40;;;;;;;2.93;83.41;98230.63;102122;1314;75595;-25
2021/12/10 07:24:26;;;;;;;9.60;5.30;;;;;;;3.32;82.29;98236.39;102050;1313;76030;-25
2021/12/10 07:26:55;;;;;;;7.60;4.70;;;;;;;3.35;81.89;98241.71;102144;1313;74418;-25
2021/12/10 07:29:22;;;;;;;11.30;5.90;;;;;;;3.15;82.35;98231.64;101818;1314;61211;-23
2021/12/10 07:31:49;;;;;;;12.30;5.00;;;;;;;2.90;83.40;98232.53;102147;1313;61102;-24
2021/12/10 07:34:16;;;;;;;5.20;3.20;;;;;;;3.14;83.16;98238.39;102205;1313;75560;-24
2021/12/10 07:36:43;;;;;;;11.10;6.50;;;;;;;3.34;82.45;98234.19;102163;1317;76203;-23
2021/12/10 07:39:10;;;;;;;8.70;5.40;;;;;;;3.21;82.66;98226.98;102090;1313;74519;-24
2021/12/10 07:41:40;;;;;;;14.30;6.40;;;;;;;2.99;83.36;98231.45;101739;1313;61188;-24
2021/12/10 07:44:09;;;;;;;8.20;4.00;;;;;;;3.20;83.36;98235.77;101850;1320;61083;-24
2021/12/10 07:46:35;;;;;;;10.60;6.20;;;;;;;3.44;82.56;98238.05;102162;1314;75381;-23
2021/12/10 07:49:03;;;;;;;14.00;8.00;;;;;;;3.32;82.70;98224.54;102012;1313;76131;-24
2021/12/10 07:51:31;;;;;;;9.60;5.80;;;;;;;3.12;83.42;98232.36;101890;1317;74411;-24
2021/12/10 07:53:59;;;;;;;12.60;7.20;;;;;;;3.23;83.75;98231.84;102128;1313;61093;-24
2021/12/10 07:56:28;;;;;;;12.10;6.00;;;;;;;3.51;82.71;98232.95;101870;1314;61339;-24
2021/12/10 07:58:55;;;;;;;16.00;7.10;;;;;;;3.45;82.66;98232.14;101848;1314;74763;-24
2021/12/10 08:01:24;;;;;;;12.00;5.10;;;;;;;3.22;83.27;98230.19;102023;1317;74943;-24
2021/12/10 08:03:52;;;;;;;9.20;5.60;;;;;;;3.28;83.86;98229.64;101812;1320;73546;-24
2021/12/10 08:06:20;;;;;;;9.80;5.40;;;;;;;3.59;82.77;98233.63;101989;1313;61186;-24
2021/12/10 08:08:48;;;;;;;14.00;7.20;;;;;;;3.58;82.79;98238.15;101887;1313;61603;-24
2021/12/10 08:11:15;;;;;;;7.30;4.90;;;;;;;3.40;83.44;98245.89;101763;1316;74656;-24
2021/12/10 08:13:42;;;;;;;12.30;7.70;;;;;;;3.34;84.22;98245.73;102295;1317;75077;-24
2021/12/10 08:16:09;;;;;;;11.00;6.00;;;;;;;3.67;83.29;98238.98;102242;1313;74406;-24
2021/12/10 08:18:36;;;;;;;9.30;6.10;;;;;;;3.70;83.02;98231.52;102189;1313;61977;-24
2021/12/10 08:21:04;;;;;;;9.30;5.10;;;;;;;3.56;83.42;98232.64;102314;1314;61289;-24
2021/12/10 08:23:32;;;;;;;11.90;6.40;;;;;;;3.47;84.24;98241.44;101956;1316;74632;-24
2021/12/10 08:25:59;;;;;;;9.90;5.50;;;;;;;3.75;83.17;98243.77;101842;1316;76059;-24
2021/12/10 08:28:27;;;;;;;10.50;6.40;;;;;;;3.74;82.85;98235.74;102020;1313;73480;-24
2021/12/10 08:30:55;;;;;;;14.40;7.20;;;;;;;3.57;83.59;98220.73;102262;1313;61310;-24
2021/12/10 08:33:23;;;;;;;14.30;7.60;;;;;;;3.52;84.56;98221.08;102268;1313;61234;-24
2021/12/10 08:35:53;;;;;;;16.60;9.60;;;;;;;3.86;83.41;98230.36;102253;1313;75635;-24
2021/12/10 08:38:20;;;;;;;20.30;12.00;;;;;;;3.86;83.05;98225.54;101923;1316;76056;-24
2021/12/10 08:40:57;;;;;;;14.90;8.60;;;;;;;3.65;83.74;98221.73;102260;1313;74406;-24
2021/12/10 08:43:25;;;;;;;12.30;7.30;;;;;;;3.76;83.89;98228.41;102307;1313;62007;-24
2021/12/10 08:45:52;;;;;;;11.10;5.60;;;;;;;3.99;82.95;98230.83;101798;1320;61374;-24
2021/12/10 08:48:20;;;;;;;15.00;9.50;;;;;;;3.89;82.96;98225.98;102189;1314;75687;-24
2021/12/10 08:50:47;;;;;;;14.30;6.10;;;;;;;3.65;83.99;98220.70;102167;1314;75221;-24
2021/12/10 08:53:15;;;;;;;13.20;6.10;;;;;;;3.82;83.46;98238.33;102092;1313;73467;-24
2021/12/10 08:55:54;;;;;;;9.40;5.50;;;;;;;4.01;82.73;98239.13;102081;1313;61200;-24
2021/12/10 08:58:22;;;;;;;8.80;5.40;;;;;;;3.85;83.04;98235.92;101798;1316;61208;-24
2021/12/10 09:00:58;;;;;;;12.10;6.70;;;;;;;3.63;84.01;98226.13;102050;1313;74466;-23
2021/12/10 09:03:46;;;;;;;9.00;5.90;;;;;;;3.88;83.68;98225.74;101958;1319;76145;-23
2021/12/10 09:06:13;;;;;;;11.60;7.60;;;;;;;4.01;82.75;98220.23;101711;1317;74417;-23
2021/12/10 09:08:40;;;;;;;16.00;9.70;;;;;;;3.87;83.18;98220.46;102266;1313;62049;-23
2021/12/10 09:11:09;;;;;;;11.00;6.60;;;;;;;3.72;84.19;98217.53;102285;1313;61402;-23
2021/12/10 09:13:36;;;;;;;12.20;7.60;;;;;;;4.01;83.06;98214.55;101892;1316;75673;-23
2021/12/10 09:16:07;;;;;;;11.50;7.40;;;;;;;4.02;82.56;98214.49;102118;1312;74934;-23
2021/12/10 09:18:34;;;;;;;15.10;7.60;;;;;;;3.79;83.49;98212.06;101793;1316;74577;-24
2021/12/10 09:21:01;;;;;;;6.20;4.10;;;;;;;3.78;84.11;98194.64;102172;1316;64144;-23
2021/12/10 09:23:29;;;;;;;12.40;8.10;;;;;;;4.13;82.70;98190.06;101935;1317;61226;-23
2021/12/10 09:25:58;;;;;;;6.90;4.20;;;;;;;4.12;82.55;98182.54;102100;1313;74656;-23
2021/12/10 09:28:26;;;;;;;9.80;4.70;;;;;;;3.93;82.75;98180.23;101819;1316;74309;-23
2021/12/10 09:30:54;;;;;;;8.20;5.30;;;;;;;3.86;83.62;98174.02;102007;1313;74499;-23
2021/12/10 09:33:21;;;;;;;8.60;5.30;;;;;;;4.28;82.68;98167.89;101731;1316;61319;-23
2021/12/10 09:35:49;;;;;;;8.00;5.00;;;;;;;4.34;81.89;98159.52;102115;1313;61530;-23
2021/12/10 09:38:16;;;;;;;8.60;5.40;;;;;;;4.19;82.36;98155.11;101698;1316;75773;-23
2021/12/10 09:40:47;;;;;;;6.90;4.90;;;;;;;3.95;83.55;98140.80;101777;1313;76195;-23
2021/12/10 09:43:14;;;;;;;10.90;7.20;;;;;;;4.34;82.54;98141.16;101856;1316;73282;-23
2021/12/10 09:45:41;;;;;;;9.00;6.60;;;;;;;4.47;81.80;98131.15;102025;1313;61094;-23
2021/12/10 09:48:10;;;;;;;8.40;4.60;;;;;;;4.30;82.15;98128.05;102111;1313;61195;-23
2021/12/10 09:51:10;;;;;;;6.30;4.10;;;;;;;4.19;82.91;98113.86;101797;1316;73759;-23
2021/12/10 09:53:38;;;;;;;5.30;4.10;;;;;;;4.49;82.08;98111.73;101831;1314;76153;-23
2021/12/10 09:56:05;;;;;;;6.40;4.10;;;;;;;4.57;81.66;98111.23;101884;1316;74329;-23
2021/12/10 09:58:32;;;;;;;7.70;4.20;;;;;;;4.35;82.25;98101.92;102099;1313;61179;-23
2021/12/10 10:01:15;;;;;;;7.10;4.70;;;;;;;4.40;82.94;98102.61;102074;1313;61501;-23
2021/12/10 10:03:44;;;;;;;6.70;4.40;;;;;;;4.73;81.68;98099.08;101598;1319;75430;-23
2021/12/10 10:06:11;;;;;;;10.00;5.00;;;;;;;4.61;81.71;98114.17;102088;1313;74982;-23
2021/12/10 10:08:39;;;;;;;8.60;5.60;;;;;;;4.39;82.34;98116.45;102261;1313;74310;-23
2021/12/10 10:11:09;;;;;;;9.70;5.70;;;;;;;4.32;82.91;98113.85;102304;1313;62637;-23
2021/12/10 10:13:44;;;;;;;7.30;4.50;;;;;;;4.59;82.37;98105.40;101806;1319;61615;-23
2021/12/10 10:16:12;;;;;;;8.80;5.10;;;;;;;4.56;82.11;98104.38;101948;1313;75654;-23
2021/12/10 10:18:40;;;;;;;10.20;4.60;;;;;;;4.24;82.79;98111.29;101848;1316;76050;-23
2021/12/10 10:21:11;;;;;;;5.70;3.80;;;;;;;4.32;83.39;98107.48;102221;1314;72545;-23
2021/12/10 10:23:41;;;;;;;7.90;5.60;;;;;;;4.58;82.51;98102.75;101849;1317;61871;-23
2021/12/10 10:26:17;;;;;;;9.10;6.20;;;;;;;4.47;82.50;98099.90;101964;1317;61026;-23
2021/12/10 10:28:45;;;;;;;7.70;3.90;;;;;;;4.21;83.37;98098.27;101707;1314;74552;-23
2021/12/10 10:31:18;;;;;;;8.10;5.00;;;;;;;4.39;83.32;98088.90;101925;1313;76040;-23
2021/12/10 10:33:47;;;;;;;8.20;5.80;;;;;;;4.50;82.78;98092.06;101646;1317;74711;-23
2021/12/10 10:36:19;;;;;;;15.60;9.20;;;;;;;4.32;83.18;98091.98;101705;1319;62024;-23
2021/12/10 10:38:48;;;;;;;7.90;5.00;;;;;;;4.21;84.01;98089.30;101625;1316;61207;-23
2021/12/10 10:41:17;;;;;;;9.30;5.30;;;;;;;4.51;83.36;98074.99;101751;1316;75573;-23
2021/12/10 10:43:44;;;;;;;6.50;4.30;;;;;;;4.56;82.87;98068.13;101845;1319;76124;-23
2021/12/10 10:46:11;;;;;;;6.90;4.90;;;;;;;4.30;83.45;98060.88;102089;1313;74294;-23
2021/12/10 10:48:40;;;;;;;9.80;6.70;;;;;;;4.31;84.08;98068.38;102152;1316;61239;-23
2021/12/10 10:51:13;;;;;;;6.90;3.70;;;;;;;4.56;83.05;98072.90;101954;1316;61215;-24
2021/12/10 10:53:44;;;;;;;10.10;6.60;;;;;;;4.55;82.90;98077.46;101896;1319;75609;-23
2021/12/10 10:56:18;;;;;;;17.30;8.50;;;;;;;4.28;83.64;98074.58;101955;1316;76227;-23
2021/12/10 10:58:56;;;;;;;10.30;6.60;;;;;;;4.34;84.12;98064.39;101967;1316;74432;-23
2021/12/10 11:01:31;;;;;;;9.30;6.10;;;;;;;4.58;83.10;98063.64;101893;1314;61170;-23
2021/12/10 11:04:28;;;;;;;7.40;5.20;;;;;;;4.44;83.46;98063.15;101786;1316;61081;-23
2021/12/10 11:07:04;;;;;;;13.30;7.10;;;;;;;4.37;83.82;98058.52;101752;1319;75639;-24
2021/12/10 11:09:32;;;;;;;8.80;4.80;;;;;;;4.70;82.87;98055.60;101857;1319;75882;-23
2021/12/10 11:12:04;;;;;;;12.90;5.80;;;;;;;4.70;82.70;98049.96;101795;1316;74865;-24
2021/12/10 11:14:37;;;;;;;8.60;5.80;;;;;;;4.48;83.33;98051.02;101720;1319;61896;-23
2021/12/10 11:17:30;;;;;;;10.30;6.20;;;;;;;4.50;83.81;98052.19;101714;1316;61333;-23
2021/12/10 11:20:29;;;;;;;14.00;7.50;;;;;;;4.74;83.06;98056.52;101966;1313;75471;-23
2021/12/10 11:23:07;;;;;;;14.40;7.20;;;;;;;4.58;83.52;98051.79;101845;1313;74976;-23
2021/12/10 11:25:48;;;;;;;14.10;7.70;;;;;;;4.46;84.17;98043.71;101711;1313;74418;-26
2021/12/10 11:28:28;;;;;;;14.30;7.30;;;;;;;4.70;83.73;98045.31;101745;1316;62688;-23
2021/12/10 11:31:03;;;;;;;9.40;5.90;;;;;;;4.76;83.36;98042.27;102148;1314;61142;-23
2021/12/10 11:33:33;;;;;;;13.30;6.80;;;;;;;4.54;83.99;98042.12;101961;1314;75420;-23
2021/12/10 11:36:07;;;;;;;13.90;8.70;;;;;;;4.60;84.41;98031.91;101811;1320;74973;-23
2021/12/10 11:38:34;;;;;;;10.70;6.10;;;;;;;4.91;83.43;98022.10;101904;1313;74297;-24
2021/12/10 11:41:17;;;;;;;12.40;6.70;;;;;;;4.82;83.44;98028.63;102295;1313;61198;-23
2021/12/10 11:47:41;;;;;;;7.70;5.00;;;;;;;4.91;83.65;98017.77;101687;1316;75438;-24
2021/12/10 11:49:43;;;;;;;6.70;4.20;;;;;;;4.86;83.49;98016.11;101822;1316;75940;-23
2021/12/10 11:52:15;;;;;;;9.60;6.30;;;;;;;4.64;84.28;98009.27;101794;1314;74375;-23
2021/12/10 11:54:52;;;;;;;12.60;7.60;;;;;;;4.77;84.31;98004.58;101759;1316;61214;-23
2021/12/10 11:57:28;;;;;;;7.50;4.10;;;;;;;5.03;83.35;97993.20;102119;1320;61239;-23